Hawk Lake, Canada
Current Conditions -  °F | °C
As of 12:00 AM on Wednesday 26 Nov 2014 (Local Time) from CYQK Reporting Station
Light Snow Light Snow  
Wind Chill: -6°   Ceiling: 1400
Heat Index:   Visibility: 6mi
Dew Point:   Wind: 8mph
Humidity: 79%   Direction: 10°N
Pressure: 30.12"   Gusts: NA
Location:  49.8°N, 94.01°W
Report Text: CYQK 260600Z 01007KT 6SM -SN OVC014 M14/M17 A3012 RMK SC8 /S02/ SLP234
Loading
Personal Weather Stations






























Interactive Weather Map New forecast layout! Learn more

10-Day Weather Forecast

Advertisements
Track Severe Weather on mobile